Terminal Aerodrome Forecast
Issued by NWS

Home | Current Version | Previous Version | Text Only | Print | Product List | Glossary On
Versions: 1 2 3 4 5 6 7 8 9 10 11 12 13 14 15 16 17 18 19 20 21 22 23 24 25 26 27 28 29 30 31 32 33 34 35 36 37 38 39
000
FTUS41 KBOX 231120
TAFHYA
TAF
KHYA 231120Z 2312/2412 23012G22KT P6SM SCT008
     FM231800 21016G24KT P6SM SCT250
     FM240000 21014KT 3SM BR SCT250
     FM240500 22010KT 1SM BR BKN050
     FM240700 24007KT 1SM -SHRA BR BKN050=

USA.gov is the U.S. government's official web portal to all federal, state and local government web resources and services.